sensor_id;sensor_type;location;lat;lon;timestamp;P1;durP1;ratioP1;P2;durP2;ratioP2
679;SDS011;322;48.846;9.230;2023-12-07T00:00:40;13.80;;;6.80;;
679;SDS011;322;48.846;9.230;2023-12-07T00:03:08;12.30;;;5.97;;
679;SDS011;322;48.846;9.230;2023-12-07T00:05:36;11.83;;;5.93;;
679;SDS011;322;48.846;9.230;2023-12-07T00:08:04;13.10;;;5.87;;
679;SDS011;322;48.846;9.230;2023-12-07T00:10:33;14.00;;;7.07;;
679;SDS011;322;48.846;9.230;2023-12-07T00:13:01;13.83;;;6.37;;
679;SDS011;322;48.846;9.230;2023-12-07T00:15:29;12.47;;;6.13;;
679;SDS011;322;48.846;9.230;2023-12-07T00:17:57;12.30;;;5.53;;
679;SDS011;322;48.846;9.230;2023-12-07T00:20:26;12.13;;;5.83;;
679;SDS011;322;48.846;9.230;2023-12-07T00:22:54;12.33;;;5.73;;
679;SDS011;322;48.846;9.230;2023-12-07T00:25:23;15.30;;;7.20;;
679;SDS011;322;48.846;9.230;2023-12-07T00:27:52;12.73;;;6.40;;
679;SDS011;322;48.846;9.230;2023-12-07T00:30:20;14.73;;;6.87;;
679;SDS011;322;48.846;9.230;2023-12-07T00:32:48;12.77;;;6.60;;
679;SDS011;322;48.846;9.230;2023-12-07T00:35:16;16.53;;;7.10;;
679;SDS011;322;48.846;9.230;2023-12-07T00:37:48;17.73;;;6.97;;
679;SDS011;322;48.846;9.230;2023-12-07T00:40:16;15.43;;;8.07;;
679;SDS011;322;48.846;9.230;2023-12-07T00:42:44;13.97;;;6.43;;
679;SDS011;322;48.846;9.230;2023-12-07T00:45:13;15.60;;;7.33;;
679;SDS011;322;48.846;9.230;2023-12-07T00:47:41;12.97;;;6.30;;
679;SDS011;322;48.846;9.230;2023-12-07T00:50:11;14.60;;;6.20;;
679;SDS011;322;48.846;9.230;2023-12-07T00:52:40;11.00;;;6.00;;
679;SDS011;322;48.846;9.230;2023-12-07T00:55:09;12.00;;;5.80;;
679;SDS011;322;48.846;9.230;2023-12-07T00:57:38;13.20;;;6.30;;
679;SDS011;322;48.846;9.230;2023-12-07T01:00:07;12.73;;;5.13;;
679;SDS011;322;48.846;9.230;2023-12-07T01:02:38;11.83;;;6.00;;
679;SDS011;322;48.846;9.230;2023-12-07T01:05:06;12.80;;;6.13;;
679;SDS011;322;48.846;9.230;2023-12-07T01:07:35;11.80;;;5.40;;
679;SDS011;322;48.846;9.230;2023-12-07T01:10:03;13.30;;;6.10;;
679;SDS011;322;48.846;9.230;2023-12-07T01:12:32;12.93;;;6.70;;
679;SDS011;322;48.846;9.230;2023-12-07T01:15:02;16.40;;;7.73;;
679;SDS011;322;48.846;9.230;2023-12-07T01:17:30;16.67;;;8.90;;
679;SDS011;322;48.846;9.230;2023-12-07T01:20:00;20.07;;;9.30;;
679;SDS011;322;48.846;9.230;2023-12-07T01:22:30;16.13;;;8.30;;
679;SDS011;322;48.846;9.230;2023-12-07T01:24:58;19.30;;;9.10;;
679;SDS011;322;48.846;9.230;2023-12-07T01:27:26;16.17;;;8.27;;
679;SDS011;322;48.846;9.230;2023-12-07T01:29:54;21.13;;;9.73;;
679;SDS011;322;48.846;9.230;2023-12-07T01:32:22;14.27;;;7.90;;
679;SDS011;322;48.846;9.230;2023-12-07T01:34:50;19.20;;;8.43;;
679;SDS011;322;48.846;9.230;2023-12-07T01:37:20;18.53;;;7.87;;
679;SDS011;322;48.846;9.230;2023-12-07T01:39:48;18.20;;;9.93;;
679;SDS011;322;48.846;9.230;2023-12-07T01:42:16;22.03;;;10.40;;
679;SDS011;322;48.846;9.230;2023-12-07T01:44:44;19.60;;;10.30;;
679;SDS011;322;48.846;9.230;2023-12-07T01:47:15;17.27;;;7.80;;
679;SDS011;322;48.846;9.230;2023-12-07T01:49:43;16.97;;;9.33;;
679;SDS011;322;48.846;9.230;2023-12-07T01:52:11;16.80;;;9.70;;
679;SDS011;322;48.846;9.230;2023-12-07T01:54:41;16.00;;;8.40;;
679;SDS011;322;48.846;9.230;2023-12-07T01:57:09;13.70;;;8.00;;
679;SDS011;322;48.846;9.230;2023-12-07T01:59:37;16.97;;;8.43;;
679;SDS011;322;48.846;9.230;2023-12-07T02:02:05;16.67;;;7.70;;
679;SDS011;322;48.846;9.230;2023-12-07T02:04:34;16.37;;;8.50;;
679;SDS011;322;48.846;9.230;2023-12-07T02:07:02;16.80;;;8.27;;
679;SDS011;322;48.846;9.230;2023-12-07T02:09:31;18.30;;;8.60;;
679;SDS011;322;48.846;9.230;2023-12-07T02:12:01;15.53;;;8.27;;
679;SDS011;322;48.846;9.230;2023-12-07T02:14:29;14.63;;;8.17;;
679;SDS011;322;48.846;9.230;2023-12-07T02:16:57;16.27;;;6.63;;
679;SDS011;322;48.846;9.230;2023-12-07T02:19:40;15.33;;;7.47;;
679;SDS011;322;48.846;9.230;2023-12-07T02:22:17;18.30;;;8.27;;
679;SDS011;322;48.846;9.230;2023-12-07T02:25:04;15.47;;;7.80;;
679;SDS011;322;48.846;9.230;2023-12-07T02:27:37;15.03;;;7.73;;
679;SDS011;322;48.846;9.230;2023-12-07T02:30:06;16.47;;;8.27;;
679;SDS011;322;48.846;9.230;2023-12-07T02:32:35;17.13;;;8.70;;
679;SDS011;322;48.846;9.230;2023-12-07T02:35:04;14.93;;;7.60;;
679;SDS011;322;48.846;9.230;2023-12-07T02:37:35;20.57;;;8.30;;
679;SDS011;322;48.846;9.230;2023-12-07T02:40:05;12.90;;;7.03;;
679;SDS011;322;48.846;9.230;2023-12-07T02:42:38;16.63;;;8.60;;
679;SDS011;322;48.846;9.230;2023-12-07T02:45:09;17.03;;;8.87;;
679;SDS011;322;48.846;9.230;2023-12-07T02:47:37;17.57;;;9.73;;
679;SDS011;322;48.846;9.230;2023-12-07T02:50:07;19.60;;;9.37;;
679;SDS011;322;48.846;9.230;2023-12-07T02:52:35;20.23;;;10.23;;
679;SDS011;322;48.846;9.230;2023-12-07T02:55:04;16.10;;;7.87;;
679;SDS011;322;48.846;9.230;2023-12-07T02:57:33;18.13;;;10.07;;
679;SDS011;322;48.846;9.230;2023-12-07T03:00:02;18.47;;;8.27;;
679;SDS011;322;48.846;9.230;2023-12-07T03:02:33;19.40;;;8.57;;
679;SDS011;322;48.846;9.230;2023-12-07T03:05:02;19.47;;;9.67;;
679;SDS011;322;48.846;9.230;2023-12-07T03:07:31;17.83;;;8.93;;
679;SDS011;322;48.846;9.230;2023-12-07T03:10:00;17.00;;;8.10;;
679;SDS011;322;48.846;9.230;2023-12-07T03:12:29;24.33;;;9.37;;
679;SDS011;322;48.846;9.230;2023-12-07T03:14:57;16.37;;;8.10;;
679;SDS011;322;48.846;9.230;2023-12-07T03:17:26;16.87;;;8.73;;
679;SDS011;322;48.846;9.230;2023-12-07T03:19:54;17.53;;;9.30;;
679;SDS011;322;48.846;9.230;2023-12-07T03:22:22;21.23;;;9.10;;
679;SDS011;322;48.846;9.230;2023-12-07T03:24:51;16.92;;;9.82;;
679;SDS011;322;48.846;9.230;2023-12-07T03:27:19;18.20;;;9.23;;
679;SDS011;322;48.846;9.230;2023-12-07T03:29:48;16.00;;;7.67;;
679;SDS011;322;48.846;9.230;2023-12-07T03:32:17;15.70;;;8.85;;
679;SDS011;322;48.846;9.230;2023-12-07T03:34:46;18.80;;;10.10;;
679;SDS011;322;48.846;9.230;2023-12-07T03:37:15;20.40;;;8.98;;
679;SDS011;322;48.846;9.230;2023-12-07T03:39:43;16.55;;;8.73;;
679;SDS011;322;48.846;9.230;2023-12-07T03:42:11;16.00;;;8.20;;
679;SDS011;322;48.846;9.230;2023-12-07T03:44:59;16.73;;;8.40;;
679;SDS011;322;48.846;9.230;2023-12-07T03:47:27;16.02;;;7.55;;
679;SDS011;322;48.846;9.230;2023-12-07T03:49:57;13.75;;;7.88;;
679;SDS011;322;48.846;9.230;2023-12-07T03:52:25;16.17;;;7.68;;
679;SDS011;322;48.846;9.230;2023-12-07T03:54:53;13.90;;;7.40;;
679;SDS011;322;48.846;9.230;2023-12-07T03:57:21;15.25;;;7.18;;
679;SDS011;322;48.846;9.230;2023-12-07T03:59:49;14.88;;;7.63;;
679;SDS011;322;48.846;9.230;2023-12-07T04:02:18;14.13;;;8.30;;
679;SDS011;322;48.846;9.230;2023-12-07T04:04:46;19.52;;;8.32;;
679;SDS011;322;48.846;9.230;2023-12-07T04:07:16;20.25;;;9.52;;
679;SDS011;322;48.846;9.230;2023-12-07T04:09:43;14.95;;;8.13;;
679;SDS011;322;48.846;9.230;2023-12-07T04:12:12;15.10;;;8.27;;
679;SDS011;322;48.846;9.230;2023-12-07T04:14:40;15.45;;;8.18;;
679;SDS011;322;48.846;9.230;2023-12-07T04:17:08;14.82;;;7.57;;
679;SDS011;322;48.846;9.230;2023-12-07T04:19:36;17.73;;;8.65;;
679;SDS011;322;48.846;9.230;2023-12-07T04:22:04;18.17;;;9.55;;
679;SDS011;322;48.846;9.230;2023-12-07T04:24:33;18.58;;;8.30;;
679;SDS011;322;48.846;9.230;2023-12-07T04:27:01;16.40;;;9.05;;
679;SDS011;322;48.846;9.230;2023-12-07T04:29:29;14.90;;;7.75;;
679;SDS011;322;48.846;9.230;2023-12-07T04:31:57;16.65;;;8.52;;
679;SDS011;322;48.846;9.230;2023-12-07T04:34:25;18.00;;;8.75;;
679;SDS011;322;48.846;9.230;2023-12-07T04:36:53;19.88;;;8.77;;
679;SDS011;322;48.846;9.230;2023-12-07T04:39:21;16.25;;;8.35;;
679;SDS011;322;48.846;9.230;2023-12-07T04:41:50;16.92;;;8.68;;
679;SDS011;322;48.846;9.230;2023-12-07T04:44:18;18.23;;;9.18;;
679;SDS011;322;48.846;9.230;2023-12-07T04:46:46;16.73;;;8.80;;
679;SDS011;322;48.846;9.230;2023-12-07T04:49:14;18.30;;;8.57;;
679;SDS011;322;48.846;9.230;2023-12-07T04:51:42;16.55;;;8.25;;
679;SDS011;322;48.846;9.230;2023-12-07T04:54:13;17.67;;;7.90;;
679;SDS011;322;48.846;9.230;2023-12-07T04:56:45;18.13;;;9.88;;
679;SDS011;322;48.846;9.230;2023-12-07T04:59:14;15.93;;;8.60;;
679;SDS011;322;48.846;9.230;2023-12-07T05:01:43;20.02;;;9.35;;
679;SDS011;322;48.846;9.230;2023-12-07T05:04:12;20.15;;;9.13;;
679;SDS011;322;48.846;9.230;2023-12-07T05:06:40;16.73;;;8.82;;
679;SDS011;322;48.846;9.230;2023-12-07T05:09:08;17.08;;;8.50;;
679;SDS011;322;48.846;9.230;2023-12-07T05:11:37;16.80;;;9.10;;
679;SDS011;322;48.846;9.230;2023-12-07T05:14:05;18.33;;;9.68;;
679;SDS011;322;48.846;9.230;2023-12-07T05:16:34;20.20;;;8.70;;
679;SDS011;322;48.846;9.230;2023-12-07T05:19:02;17.60;;;9.05;;
679;SDS011;322;48.846;9.230;2023-12-07T05:21:31;17.35;;;8.00;;
679;SDS011;322;48.846;9.230;2023-12-07T05:23:59;21.40;;;8.45;;
679;SDS011;322;48.846;9.230;2023-12-07T05:26:27;17.30;;;8.95;;
679;SDS011;322;48.846;9.230;2023-12-07T05:28:56;19.88;;;9.00;;
679;SDS011;322;48.846;9.230;2023-12-07T05:31:24;19.35;;;9.10;;
679;SDS011;322;48.846;9.230;2023-12-07T05:33:54;16.20;;;8.48;;
679;SDS011;322;48.846;9.230;2023-12-07T05:36:22;18.40;;;8.90;;
679;SDS011;322;48.846;9.230;2023-12-07T05:38:50;20.10;;;8.95;;
679;SDS011;322;48.846;9.230;2023-12-07T05:41:18;17.60;;;9.20;;
679;SDS011;322;48.846;9.230;2023-12-07T05:43:46;20.02;;;10.02;;
679;SDS011;322;48.846;9.230;2023-12-07T05:46:15;18.63;;;9.70;;
679;SDS011;322;48.846;9.230;2023-12-07T05:48:43;18.60;;;10.23;;
679;SDS011;322;48.846;9.230;2023-12-07T05:51:13;21.80;;;9.20;;
679;SDS011;322;48.846;9.230;2023-12-07T05:53:41;15.85;;;8.55;;
679;SDS011;322;48.846;9.230;2023-12-07T05:56:09;17.73;;;8.60;;
679;SDS011;322;48.846;9.230;2023-12-07T05:58:37;17.95;;;8.82;;
679;SDS011;322;48.846;9.230;2023-12-07T06:01:05;21.85;;;10.35;;
679;SDS011;322;48.846;9.230;2023-12-07T06:03:34;16.00;;;8.23;;
679;SDS011;322;48.846;9.230;2023-12-07T06:06:02;19.85;;;9.90;;
679;SDS011;322;48.846;9.230;2023-12-07T06:08:32;18.52;;;10.20;;
679;SDS011;322;48.846;9.230;2023-12-07T06:11:00;18.73;;;8.95;;
679;SDS011;322;48.846;9.230;2023-12-07T06:13:29;18.13;;;9.20;;
679;SDS011;322;48.846;9.230;2023-12-07T06:15:57;21.20;;;11.07;;
679;SDS011;322;48.846;9.230;2023-12-07T06:18:25;21.23;;;9.88;;
679;SDS011;322;48.846;9.230;2023-12-07T06:20:53;19.80;;;10.68;;
679;SDS011;322;48.846;9.230;2023-12-07T06:23:22;20.45;;;10.60;;
679;SDS011;322;48.846;9.230;2023-12-07T06:25:50;25.30;;;10.88;;
679;SDS011;322;48.846;9.230;2023-12-07T06:28:18;18.48;;;9.77;;
679;SDS011;322;48.846;9.230;2023-12-07T06:30:46;21.38;;;10.75;;
679;SDS011;322;48.846;9.230;2023-12-07T06:33:14;19.60;;;10.80;;
679;SDS011;322;48.846;9.230;2023-12-07T06:35:42;21.23;;;10.80;;
679;SDS011;322;48.846;9.230;2023-12-07T06:38:09;19.52;;;9.82;;
679;SDS011;322;48.846;9.230;2023-12-07T06:40:37;25.80;;;12.88;;
679;SDS011;322;48.846;9.230;2023-12-07T06:43:07;20.83;;;10.13;;
679;SDS011;322;48.846;9.230;2023-12-07T06:45:35;17.42;;;9.48;;
679;SDS011;322;48.846;9.230;2023-12-07T06:48:03;19.48;;;10.15;;
679;SDS011;322;48.846;9.230;2023-12-07T06:50:32;21.55;;;10.07;;
679;SDS011;322;48.846;9.230;2023-12-07T06:53:00;22.38;;;10.63;;
679;SDS011;322;48.846;9.230;2023-12-07T06:55:28;22.35;;;11.13;;
679;SDS011;322;48.846;9.230;2023-12-07T06:57:56;26.80;;;10.30;;
679;SDS011;322;48.846;9.230;2023-12-07T07:00:25;28.10;;;12.40;;
679;SDS011;322;48.846;9.230;2023-12-07T07:02:53;21.30;;;10.88;;
679;SDS011;322;48.846;9.230;2023-12-07T07:05:21;20.80;;;10.25;;
679;SDS011;322;48.846;9.230;2023-12-07T07:07:49;27.08;;;10.77;;
679;SDS011;322;48.846;9.230;2023-12-07T07:10:17;17.70;;;9.85;;
679;SDS011;322;48.846;9.230;2023-12-07T07:12:45;20.17;;;10.27;;
679;SDS011;322;48.846;9.230;2023-12-07T07:15:14;20.23;;;10.00;;
679;SDS011;322;48.846;9.230;2023-12-07T07:17:43;20.33;;;10.75;;
679;SDS011;322;48.846;9.230;2023-12-07T07:20:11;19.42;;;11.27;;
679;SDS011;322;48.846;9.230;2023-12-07T07:22:39;18.63;;;10.43;;
679;SDS011;322;48.846;9.230;2023-12-07T07:25:08;26.23;;;11.25;;
679;SDS011;322;48.846;9.230;2023-12-07T07:27:36;21.27;;;10.65;;
679;SDS011;322;48.846;9.230;2023-12-07T07:30:05;23.70;;;12.18;;
679;SDS011;322;48.846;9.230;2023-12-07T07:32:34;27.27;;;11.52;;
679;SDS011;322;48.846;9.230;2023-12-07T07:35:04;21.05;;;10.45;;
679;SDS011;322;48.846;9.230;2023-12-07T07:37:32;20.92;;;11.15;;
679;SDS011;322;48.846;9.230;2023-12-07T07:40:01;22.20;;;11.30;;
679;SDS011;322;48.846;9.230;2023-12-07T07:42:33;26.85;;;11.98;;
679;SDS011;322;48.846;9.230;2023-12-07T07:45:01;24.02;;;12.07;;
679;SDS011;322;48.846;9.230;2023-12-07T07:47:29;21.17;;;11.82;;
679;SDS011;322;48.846;9.230;2023-12-07T07:49:57;26.08;;;12.07;;
679;SDS011;322;48.846;9.230;2023-12-07T07:52:26;26.13;;;12.13;;
679;SDS011;322;48.846;9.230;2023-12-07T07:54:54;20.85;;;12.18;;
679;SDS011;322;48.846;9.230;2023-12-07T07:57:22;23.13;;;13.18;;
679;SDS011;322;48.846;9.230;2023-12-07T07:59:51;23.67;;;11.98;;
679;SDS011;322;48.846;9.230;2023-12-07T08:02:19;21.30;;;10.55;;
679;SDS011;322;48.846;9.230;2023-12-07T08:04:48;21.13;;;11.77;;
679;SDS011;322;48.846;9.230;2023-12-07T08:07:17;24.90;;;11.45;;
679;SDS011;322;48.846;9.230;2023-12-07T08:09:47;26.95;;;11.40;;
679;SDS011;322;48.846;9.230;2023-12-07T08:12:15;24.20;;;11.27;;
679;SDS011;322;48.846;9.230;2023-12-07T08:14:43;21.73;;;11.70;;
679;SDS011;322;48.846;9.230;2023-12-07T08:17:11;23.80;;;12.88;;
679;SDS011;322;48.846;9.230;2023-12-07T08:19:41;22.30;;;12.20;;
679;SDS011;322;48.846;9.230;2023-12-07T08:22:09;27.55;;;12.90;;
679;SDS011;322;48.846;9.230;2023-12-07T08:24:38;24.48;;;13.10;;
679;SDS011;322;48.846;9.230;2023-12-07T08:27:07;26.52;;;12.55;;
679;SDS011;322;48.846;9.230;2023-12-07T08:29:36;22.55;;;10.82;;
679;SDS011;322;48.846;9.230;2023-12-07T08:32:04;26.98;;;12.52;;
679;SDS011;322;48.846;9.230;2023-12-07T08:34:32;21.30;;;12.45;;
679;SDS011;322;48.846;9.230;2023-12-07T08:37:00;23.85;;;11.82;;
679;SDS011;322;48.846;9.230;2023-12-07T08:39:29;24.08;;;12.45;;
679;SDS011;322;48.846;9.230;2023-12-07T08:41:57;22.10;;;11.93;;
679;SDS011;322;48.846;9.230;2023-12-07T08:44:26;19.17;;;10.70;;
679;SDS011;322;48.846;9.230;2023-12-07T08:46:54;21.95;;;12.07;;
679;SDS011;322;48.846;9.230;2023-12-07T08:49:22;22.23;;;11.65;;
679;SDS011;322;48.846;9.230;2023-12-07T08:51:50;24.05;;;11.82;;
679;SDS011;322;48.846;9.230;2023-12-07T08:54:39;21.20;;;12.05;;
679;SDS011;322;48.846;9.230;2023-12-07T08:57:07;26.17;;;12.35;;
679;SDS011;322;48.846;9.230;2023-12-07T08:59:36;25.60;;;12.70;;
679;SDS011;322;48.846;9.230;2023-12-07T09:02:04;23.13;;;12.65;;
679;SDS011;322;48.846;9.230;2023-12-07T09:04:32;22.17;;;11.48;;
679;SDS011;322;48.846;9.230;2023-12-07T09:07:00;23.30;;;11.68;;
679;SDS011;322;48.846;9.230;2023-12-07T09:09:29;21.03;;;11.93;;
679;SDS011;322;48.846;9.230;2023-12-07T09:11:56;20.17;;;10.80;;
679;SDS011;322;48.846;9.230;2023-12-07T09:14:24;20.80;;;10.80;;
679;SDS011;322;48.846;9.230;2023-12-07T09:16:54;21.37;;;11.53;;
679;SDS011;322;48.846;9.230;2023-12-07T09:19:22;18.50;;;12.53;;
679;SDS011;322;48.846;9.230;2023-12-07T09:21:50;23.40;;;11.57;;
679;SDS011;322;48.846;9.230;2023-12-07T09:24:18;22.50;;;10.80;;
679;SDS011;322;48.846;9.230;2023-12-07T09:26:46;19.80;;;11.00;;
679;SDS011;322;48.846;9.230;2023-12-07T09:29:15;23.37;;;13.07;;
679;SDS011;322;48.846;9.230;2023-12-07T09:31:43;18.20;;;10.20;;
679;SDS011;322;48.846;9.230;2023-12-07T09:34:12;16.67;;;10.37;;
679;SDS011;322;48.846;9.230;2023-12-07T09:36:44;20.97;;;11.17;;
679;SDS011;322;48.846;9.230;2023-12-07T09:39:12;19.77;;;10.53;;
679;SDS011;322;48.846;9.230;2023-12-07T09:41:40;17.57;;;10.77;;
679;SDS011;322;48.846;9.230;2023-12-07T09:44:12;20.57;;;10.20;;
679;SDS011;322;48.846;9.230;2023-12-07T09:46:40;18.27;;;10.70;;
679;SDS011;322;48.846;9.230;2023-12-07T09:49:08;18.70;;;10.50;;
679;SDS011;322;48.846;9.230;2023-12-07T09:51:38;18.53;;;9.57;;
679;SDS011;322;48.846;9.230;2023-12-07T09:54:09;18.50;;;10.53;;
679;SDS011;322;48.846;9.230;2023-12-07T09:56:37;16.97;;;9.87;;
679;SDS011;322;48.846;9.230;2023-12-07T09:59:05;19.40;;;10.83;;
679;SDS011;322;48.846;9.230;2023-12-07T10:01:34;21.70;;;10.40;;
679;SDS011;322;48.846;9.230;2023-12-07T10:04:14;19.50;;;10.90;;
679;SDS011;322;48.846;9.230;2023-12-07T10:06:44;19.03;;;9.90;;
679;SDS011;322;48.846;9.230;2023-12-07T10:09:12;19.23;;;10.37;;
679;SDS011;322;48.846;9.230;2023-12-07T10:11:49;16.43;;;9.50;;
679;SDS011;322;48.846;9.230;2023-12-07T10:14:28;20.13;;;10.80;;
679;SDS011;322;48.846;9.230;2023-12-07T10:16:56;17.73;;;9.17;;
679;SDS011;322;48.846;9.230;2023-12-07T10:19:24;15.33;;;8.40;;
679;SDS011;322;48.846;9.230;2023-12-07T10:21:59;16.27;;;8.70;;
679;SDS011;322;48.846;9.230;2023-12-07T10:24:27;13.97;;;7.77;;
679;SDS011;322;48.846;9.230;2023-12-07T10:26:57;15.10;;;7.77;;
679;SDS011;322;48.846;9.230;2023-12-07T10:29:29;12.90;;;7.33;;
679;SDS011;322;48.846;9.230;2023-12-07T10:31:59;15.50;;;7.57;;
679;SDS011;322;48.846;9.230;2023-12-07T10:34:29;13.53;;;7.03;;
679;SDS011;322;48.846;9.230;2023-12-07T10:36:59;12.40;;;7.27;;
679;SDS011;322;48.846;9.230;2023-12-07T10:39:27;15.63;;;8.30;;
679;SDS011;322;48.846;9.230;2023-12-07T10:42:01;13.67;;;7.80;;
679;SDS011;322;48.846;9.230;2023-12-07T10:44:34;15.00;;;7.60;;
679;SDS011;322;48.846;9.230;2023-12-07T10:47:07;12.30;;;6.70;;
679;SDS011;322;48.846;9.230;2023-12-07T10:49:38;14.10;;;6.90;;
679;SDS011;322;48.846;9.230;2023-12-07T10:52:14;15.70;;;8.17;;
679;SDS011;322;48.846;9.230;2023-12-07T10:54:47;14.70;;;8.90;;
679;SDS011;322;48.846;9.230;2023-12-07T10:57:22;14.70;;;7.33;;
679;SDS011;322;48.846;9.230;2023-12-07T10:59:51;14.03;;;8.17;;
679;SDS011;322;48.846;9.230;2023-12-07T11:02:22;14.87;;;8.10;;
679;SDS011;322;48.846;9.230;2023-12-07T11:04:52;15.07;;;8.00;;
679;SDS011;322;48.846;9.230;2023-12-07T11:07:25;13.27;;;7.90;;
679;SDS011;322;48.846;9.230;2023-12-07T11:09:59;13.57;;;8.63;;
679;SDS011;322;48.846;9.230;2023-12-07T11:12:33;14.40;;;8.13;;
679;SDS011;322;48.846;9.230;2023-12-07T11:15:05;15.03;;;7.60;;
679;SDS011;322;48.846;9.230;2023-12-07T11:17:47;14.23;;;7.10;;
679;SDS011;322;48.846;9.230;2023-12-07T11:20:20;13.67;;;7.80;;
679;SDS011;322;48.846;9.230;2023-12-07T11:22:50;12.40;;;7.17;;
679;SDS011;322;48.846;9.230;2023-12-07T11:25:19;15.83;;;7.87;;
679;SDS011;322;48.846;9.230;2023-12-07T11:27:47;16.20;;;8.60;;
679;SDS011;322;48.846;9.230;2023-12-07T11:30:26;15.13;;;7.50;;
679;SDS011;322;48.846;9.230;2023-12-07T11:32:55;17.40;;;9.30;;
679;SDS011;322;48.846;9.230;2023-12-07T11:35:23;15.77;;;8.27;;
679;SDS011;322;48.846;9.230;2023-12-07T11:38:03;13.37;;;6.73;;
679;SDS011;322;48.846;9.230;2023-12-07T11:40:34;13.63;;;6.97;;
679;SDS011;322;48.846;9.230;2023-12-07T11:43:03;13.47;;;7.57;;
679;SDS011;322;48.846;9.230;2023-12-07T11:45:41;17.33;;;7.10;;
679;SDS011;322;48.846;9.230;2023-12-07T11:48:15;13.87;;;7.47;;
679;SDS011;322;48.846;9.230;2023-12-07T11:50:58;16.70;;;7.13;;
679;SDS011;322;48.846;9.230;2023-12-07T11:53:29;15.17;;;8.33;;
679;SDS011;322;48.846;9.230;2023-12-07T11:55:58;15.00;;;8.90;;
679;SDS011;322;48.846;9.230;2023-12-07T11:58:28;17.50;;;7.90;;
679;SDS011;322;48.846;9.230;2023-12-07T12:01:00;15.13;;;7.80;;
679;SDS011;322;48.846;9.230;2023-12-07T12:03:29;15.73;;;7.80;;
679;SDS011;322;48.846;9.230;2023-12-07T12:05:59;14.90;;;8.07;;
679;SDS011;322;48.846;9.230;2023-12-07T12:08:28;15.60;;;7.53;;
679;SDS011;322;48.846;9.230;2023-12-07T12:10:57;13.63;;;6.83;;
679;SDS011;322;48.846;9.230;2023-12-07T12:13:28;14.30;;;6.40;;
679;SDS011;322;48.846;9.230;2023-12-07T12:15:57;13.40;;;6.70;;
679;SDS011;322;48.846;9.230;2023-12-07T12:18:29;12.20;;;6.27;;
679;SDS011;322;48.846;9.230;2023-12-07T12:20:59;13.93;;;6.60;;
679;SDS011;322;48.846;9.230;2023-12-07T12:23:29;13.50;;;6.77;;
679;SDS011;322;48.846;9.230;2023-12-07T12:25:57;13.13;;;6.50;;
679;SDS011;322;48.846;9.230;2023-12-07T12:28:25;11.67;;;5.93;;
679;SDS011;322;48.846;9.230;2023-12-07T12:30:54;13.47;;;5.83;;
679;SDS011;322;48.846;9.230;2023-12-07T12:33:22;12.10;;;5.13;;
679;SDS011;322;48.846;9.230;2023-12-07T12:36:00;12.10;;;5.40;;
679;SDS011;322;48.846;9.230;2023-12-07T12:38:34;10.87;;;5.63;;
679;SDS011;322;48.846;9.230;2023-12-07T12:41:09;11.10;;;5.30;;
679;SDS011;322;48.846;9.230;2023-12-07T12:43:39;11.37;;;5.57;;
679;SDS011;322;48.846;9.230;2023-12-07T12:46:07;12.87;;;5.10;;
679;SDS011;322;48.846;9.230;2023-12-07T12:48:37;10.10;;;4.50;;
679;SDS011;322;48.846;9.230;2023-12-07T12:51:19;10.10;;;4.30;;
679;SDS011;322;48.846;9.230;2023-12-07T12:53:49;10.03;;;4.60;;
679;SDS011;322;48.846;9.230;2023-12-07T12:56:19;11.37;;;4.93;;
679;SDS011;322;48.846;9.230;2023-12-07T12:58:48;10.10;;;4.27;;
679;SDS011;322;48.846;9.230;2023-12-07T13:01:16;9.80;;;3.70;;
679;SDS011;322;48.846;9.230;2023-12-07T13:03:47;9.30;;;4.00;;
679;SDS011;322;48.846;9.230;2023-12-07T13:06:16;9.93;;;4.60;;
679;SDS011;322;48.846;9.230;2023-12-07T13:08:45;10.70;;;4.27;;
679;SDS011;322;48.846;9.230;2023-12-07T13:11:18;9.83;;;3.70;;
679;SDS011;322;48.846;9.230;2023-12-07T13:13:46;10.07;;;3.90;;
679;SDS011;322;48.846;9.230;2023-12-07T13:16:15;10.73;;;4.77;;
679;SDS011;322;48.846;9.230;2023-12-07T13:18:43;8.97;;;3.80;;
679;SDS011;322;48.846;9.230;2023-12-07T13:21:14;10.60;;;3.73;;
679;SDS011;322;48.846;9.230;2023-12-07T13:23:43;8.90;;;3.57;;
679;SDS011;322;48.846;9.230;2023-12-07T13:26:12;10.73;;;3.97;;
679;SDS011;322;48.846;9.230;2023-12-07T13:28:42;9.90;;;3.77;;
679;SDS011;322;48.846;9.230;2023-12-07T13:31:10;9.57;;;3.27;;
679;SDS011;322;48.846;9.230;2023-12-07T13:33:38;9.47;;;3.70;;
679;SDS011;322;48.846;9.230;2023-12-07T13:36:18;9.07;;;3.50;;
679;SDS011;322;48.846;9.230;2023-12-07T13:38:49;9.10;;;3.33;;
679;SDS011;322;48.846;9.230;2023-12-07T13:41:17;10.37;;;3.50;;
679;SDS011;322;48.846;9.230;2023-12-07T13:43:47;8.50;;;2.93;;
679;SDS011;322;48.846;9.230;2023-12-07T13:46:16;9.87;;;3.57;;
679;SDS011;322;48.846;9.230;2023-12-07T13:48:44;7.50;;;2.57;;
679;SDS011;322;48.846;9.230;2023-12-07T13:51:13;8.43;;;3.57;;
679;SDS011;322;48.846;9.230;2023-12-07T13:53:41;9.40;;;3.00;;
679;SDS011;322;48.846;9.230;2023-12-07T13:56:09;8.83;;;3.70;;
679;SDS011;322;48.846;9.230;2023-12-07T13:58:37;8.90;;;3.10;;
679;SDS011;322;48.846;9.230;2023-12-07T14:01:07;9.80;;;3.50;;
679;SDS011;322;48.846;9.230;2023-12-07T14:03:35;8.77;;;3.13;;
679;SDS011;322;48.846;9.230;2023-12-07T14:06:04;8.60;;;2.93;;
679;SDS011;322;48.846;9.230;2023-12-07T14:08:46;10.17;;;3.70;;
679;SDS011;322;48.846;9.230;2023-12-07T14:11:14;8.80;;;2.70;;
679;SDS011;322;48.846;9.230;2023-12-07T14:13:42;10.90;;;3.33;;
679;SDS011;322;48.846;9.230;2023-12-07T14:16:13;8.23;;;3.17;;
679;SDS011;322;48.846;9.230;2023-12-07T14:18:52;12.60;;;3.90;;
679;SDS011;322;48.846;9.230;2023-12-07T14:21:40;9.03;;;3.23;;
679;SDS011;322;48.846;9.230;2023-12-07T14:24:21;8.20;;;2.90;;
679;SDS011;322;48.846;9.230;2023-12-07T14:26:49;7.17;;;2.33;;
679;SDS011;322;48.846;9.230;2023-12-07T14:29:17;7.77;;;2.50;;
679;SDS011;322;48.846;9.230;2023-12-07T14:31:54;8.90;;;2.10;;
679;SDS011;322;48.846;9.230;2023-12-07T14:34:22;8.07;;;2.07;;
679;SDS011;322;48.846;9.230;2023-12-07T14:37:00;10.33;;;2.60;;
679;SDS011;322;48.846;9.230;2023-12-07T14:39:33;6.80;;;2.03;;
679;SDS011;322;48.846;9.230;2023-12-07T14:42:01;9.00;;;2.10;;
679;SDS011;322;48.846;9.230;2023-12-07T14:44:31;8.70;;;1.80;;
679;SDS011;322;48.846;9.230;2023-12-07T14:47:00;7.40;;;1.57;;
679;SDS011;322;48.846;9.230;2023-12-07T14:49:28;7.00;;;1.60;;
679;SDS011;322;48.846;9.230;2023-12-07T14:51:57;8.13;;;1.90;;
679;SDS011;322;48.846;9.230;2023-12-07T14:54:25;7.37;;;2.30;;
679;SDS011;322;48.846;9.230;2023-12-07T14:56:55;7.87;;;2.17;;
679;SDS011;322;48.846;9.230;2023-12-07T14:59:24;9.70;;;2.57;;
679;SDS011;322;48.846;9.230;2023-12-07T15:01:52;8.30;;;2.10;;
679;SDS011;322;48.846;9.230;2023-12-07T15:04:22;7.60;;;2.17;;
679;SDS011;322;48.846;9.230;2023-12-07T15:06:59;7.03;;;1.93;;
679;SDS011;322;48.846;9.230;2023-12-07T15:09:28;10.53;;;2.37;;
679;SDS011;322;48.846;9.230;2023-12-07T15:11:56;7.80;;;1.90;;
679;SDS011;322;48.846;9.230;2023-12-07T15:14:25;7.83;;;2.00;;
679;SDS011;322;48.846;9.230;2023-12-07T15:17:03;6.90;;;2.10;;
679;SDS011;322;48.846;9.230;2023-12-07T15:19:33;7.43;;;2.23;;
679;SDS011;322;48.846;9.230;2023-12-07T15:22:06;7.20;;;1.97;;
679;SDS011;322;48.846;9.230;2023-12-07T15:24:34;8.20;;;2.10;;
679;SDS011;322;48.846;9.230;2023-12-07T15:27:05;7.70;;;2.40;;
679;SDS011;322;48.846;9.230;2023-12-07T15:29:33;9.37;;;3.10;;
679;SDS011;322;48.846;9.230;2023-12-07T15:32:02;7.43;;;2.30;;
679;SDS011;322;48.846;9.230;2023-12-07T15:34:31;10.43;;;2.63;;
679;SDS011;322;48.846;9.230;2023-12-07T15:37:07;10.90;;;4.00;;
679;SDS011;322;48.846;9.230;2023-12-07T15:39:39;10.47;;;2.90;;
679;SDS011;322;48.846;9.230;2023-12-07T15:42:07;9.40;;;2.87;;